Time;durP1;ratioP1;P1;durP2;ratioP2;P2;SDS_P1;SDS_P2;PMS_P1;PMS_P2;Temp;Humidity;BMP_temperature;BMP_pressure;BME280_temperature;BME280_humidity;BME280_pressure;Samples;Min_cycle;Max_cycle;Signal;HPM_P1;HPM_P2
2024/02/19 00:02:08;;;;;;;;;;;15.50;55.40;;;;;;5012762;28;19940;-74
2024/02/19 00:04:36;;;;;;;;;;;15.50;55.30;;;;;;5024540;28;19933;-76
2024/02/19 00:07:06;;;;;;;;;;;15.50;55.30;;;;;;5011354;28;20370;-74
2024/02/19 00:09:34;;;;;;;;;;;15.50;55.20;;;;;;5015252;28;19925;-75
2024/02/19 00:12:03;;;;;;;;;;;15.50;55.30;;;;;;5012573;28;19966;-76
2024/02/19 00:14:31;;;;;;;;;;;15.50;55.40;;;;;;5009210;28;20000;-74
2024/02/19 00:17:00;;;;;;;;;;;15.50;55.30;;;;;;5007987;28;19925;-75
2024/02/19 00:19:28;;;;;;;;;;;15.50;55.30;;;;;;5011359;28;19929;-76
2024/02/19 00:21:56;;;;;;;;;;;15.50;55.40;;;;;;5012672;28;19936;-74
2024/02/19 00:24:25;;;;;;;;;;;15.50;55.40;;;;;;5012815;28;19929;-75
2024/02/19 00:26:53;;;;;;;;;;;15.50;55.30;;;;;;5004005;28;20384;-75
2024/02/19 00:29:22;;;;;;;;;;;15.50;55.20;;;;;;5010381;28;20004;-76
2024/02/19 00:31:50;;;;;;;;;;;15.50;55.20;;;;;;5009965;28;20260;-75
2024/02/19 00:34:19;;;;;;;;;;;15.40;55.20;;;;;;5010731;28;19933;-76
2024/02/19 00:36:47;;;;;;;;;;;15.40;55.30;;;;;;5008039;28;19933;-77
2024/02/19 00:39:15;;;;;;;;;;;15.30;55.30;;;;;;5003801;28;20449;-76
2024/02/19 00:41:44;;;;;;;;;;;15.20;55.40;;;;;;5012418;28;19930;-75
2024/02/19 00:44:13;;;;;;;;;;;15.10;55.60;;;;;;5011883;28;20048;-74
2024/02/19 00:46:41;;;;;;;;;;;15.10;55.60;;;;;;5010747;28;19937;-75
2024/02/19 00:49:09;;;;;;;;;;;15.00;55.60;;;;;;5006747;28;19952;-75
2024/02/19 00:51:37;;;;;;;;;;;14.90;55.70;;;;;;5010200;28;19930;-75
2024/02/19 00:54:05;;;;;;;;;;;14.80;55.70;;;;;;5015796;28;19936;-75
2024/02/19 00:56:33;;;;;;;;;;;14.70;55.90;;;;;;5014334;28;19960;-76
2024/02/19 00:59:03;;;;;;;;;;;14.60;56.00;;;;;;5013210;28;19929;-76
2024/02/19 01:01:31;;;;;;;;;;;14.60;56.10;;;;;;5001978;28;20822;-75
2024/02/19 01:03:59;;;;;;;;;;;14.50;56.10;;;;;;5013326;28;20338;-75
2024/02/19 01:06:28;;;;;;;;;;;14.50;56.10;;;;;;5011416;28;20044;-75
2024/02/19 01:08:57;;;;;;;;;;;14.50;56.20;;;;;;5010036;28;19933;-76
2024/02/19 01:11:25;;;;;;;;;;;14.50;56.20;;;;;;5008765;28;20051;-75
2024/02/19 01:13:53;;;;;;;;;;;14.40;56.20;;;;;;5012526;28;19991;-75
2024/02/19 01:16:23;;;;;;;;;;;14.40;56.20;;;;;;5002819;28;20499;-76
2024/02/19 01:18:51;;;;;;;;;;;14.40;56.30;;;;;;5010173;28;19936;-76
2024/02/19 01:21:20;;;;;;;;;;;14.40;56.50;;;;;;5013491;28;19933;-76
2024/02/19 01:23:48;;;;;;;;;;;14.40;56.40;;;;;;5009410;28;19933;-76
2024/02/19 01:26:18;;;;;;;;;;;14.30;56.40;;;;;;5010024;28;20028;-76
2024/02/19 01:28:47;;;;;;;;;;;14.30;56.50;;;;;;5015304;28;20306;-77
2024/02/19 01:31:15;;;;;;;;;;;14.30;56.60;;;;;;5009646;28;19928;-76
2024/02/19 01:33:46;;;;;;;;;;;14.30;56.60;;;;;;5006713;28;20121;-77
2024/02/19 01:36:21;;;;;;;;;;;14.20;56.70;;;;;;5013730;28;19925;-78
2024/02/19 01:38:52;;;;;;;;;;;14.30;56.90;;;;;;5020863;28;20145;-77
2024/02/19 01:41:20;;;;;;;;;;;14.20;56.90;;;;;;5014242;28;19929;-77
2024/02/19 01:43:48;;;;;;;;;;;14.20;56.90;;;;;;5008248;28;19971;-78
2024/02/19 01:46:18;;;;;;;;;;;14.20;56.90;;;;;;5019690;28;19940;-77
2024/02/19 01:48:48;;;;;;;;;;;14.20;56.90;;;;;;5015414;28;19929;-78
2024/02/19 01:51:17;;;;;;;;;;;14.20;56.90;;;;;;5018260;28;19932;-78
2024/02/19 01:53:46;;;;;;;;;;;14.10;57.00;;;;;;5018220;28;19964;-77
2024/02/19 01:56:14;;;;;;;;;;;14.10;57.00;;;;;;5005752;28;20015;-77
2024/02/19 01:58:42;;;;;;;;;;;14.00;57.00;;;;;;5027810;28;19960;-77
2024/02/19 02:01:11;;;;;;;;;;;14.00;57.10;;;;;;5011214;28;19940;-78
2024/02/19 02:03:40;;;;;;;;;;;14.00;57.10;;;;;;5018450;28;20353;-77
2024/02/19 02:06:10;;;;;;;;;;;13.90;57.00;;;;;;5009582;28;22073;-76
2024/02/19 02:08:40;;;;;;;;;;;13.90;57.00;;;;;;5013465;28;19972;-77
2024/02/19 02:11:08;;;;;;;;;;;13.90;57.20;;;;;;5015451;28;20379;-77
2024/02/19 02:13:36;;;;;;;;;;;13.80;57.10;;;;;;5013579;28;21589;-79
2024/02/19 02:16:05;;;;;;;;;;;13.80;57.20;;;;;;5018836;28;19933;-78
2024/02/19 02:18:34;;;;;;;;;;;13.90;57.20;;;;;;5006746;28;19932;-77
2024/02/19 02:21:03;;;;;;;;;;;13.90;57.20;;;;;;5015741;28;20239;-78
2024/02/19 02:23:33;;;;;;;;;;;13.90;57.30;;;;;;5019655;28;20028;-77
2024/02/19 02:26:01;;;;;;;;;;;13.90;57.20;;;;;;5018319;28;19929;-79
2024/02/19 02:28:31;;;;;;;;;;;13.90;57.20;;;;;;5015758;28;20388;-78
2024/02/19 02:30:59;;;;;;;;;;;13.90;57.30;;;;;;5005775;28;21465;-77
2024/02/19 02:33:27;;;;;;;;;;;13.90;57.90;;;;;;5014708;28;20615;-79
2024/02/19 02:35:56;;;;;;;;;;;13.80;57.30;;;;;;5013973;28;21132;-78
2024/02/19 02:38:24;;;;;;;;;;;13.80;57.30;;;;;;5019033;28;19936;-77
2024/02/19 02:40:53;;;;;;;;;;;13.80;57.40;;;;;;5013917;28;19929;-77
2024/02/19 02:43:21;;;;;;;;;;;13.80;57.30;;;;;;5011081;28;20051;-77
2024/02/19 02:45:51;;;;;;;;;;;13.90;57.30;;;;;;5013604;28;19933;-78
2024/02/19 02:48:20;;;;;;;;;;;13.80;57.30;;;;;;5016211;28;20403;-79
2024/02/19 02:50:48;;;;;;;;;;;13.80;57.30;;;;;;5011260;28;19933;-80
2024/02/19 02:53:17;;;;;;;;;;;13.90;57.40;;;;;;5013750;28;19951;-79
2024/02/19 02:55:45;;;;;;;;;;;13.90;57.40;;;;;;5011421;28;20884;-80
2024/02/19 02:58:13;;;;;;;;;;;13.90;57.50;;;;;;5015823;28;19933;-77
2024/02/19 03:00:41;;;;;;;;;;;13.90;57.40;;;;;;5011886;28;19995;-77
2024/02/19 03:03:11;;;;;;;;;;;13.80;57.20;;;;;;5014370;28;20367;-78
2024/02/19 03:05:40;;;;;;;;;;;13.80;57.30;;;;;;5006872;28;19933;-77
2024/02/19 03:08:08;;;;;;;;;;;13.70;57.30;;;;;;5017956;28;19929;-78
2024/02/19 03:10:36;;;;;;;;;;;13.60;57.40;;;;;;5027043;28;19932;-78
2024/02/19 03:13:05;;;;;;;;;;;13.60;57.40;;;;;;5018240;28;19945;-78
2024/02/19 03:15:33;;;;;;;;;;;13.70;57.50;;;;;;5011699;28;19936;-77
2024/02/19 03:18:01;;;;;;;;;;;13.70;57.50;;;;;;5011179;28;20033;-78
2024/02/19 03:20:31;;;;;;;;;;;13.70;57.30;;;;;;5012077;28;19929;-79
2024/02/19 03:22:59;;;;;;;;;;;13.80;57.40;;;;;;5016666;28;19929;-79
2024/02/19 03:25:27;;;;;;;;;;;13.70;57.30;;;;;;5014190;28;19933;-79
2024/02/19 03:27:55;;;;;;;;;;;13.70;57.50;;;;;;5016664;28;19932;-80
2024/02/19 03:30:23;;;;;;;;;;;13.80;57.60;;;;;;5007339;28;19935;-77
2024/02/19 03:32:51;;;;;;;;;;;13.80;57.60;;;;;;5015969;28;19964;-79
2024/02/19 03:35:20;;;;;;;;;;;13.80;57.60;;;;;;5006740;28;19929;-79
2024/02/19 03:37:50;;;;;;;;;;;13.80;57.60;;;;;;5013723;28;19929;-80
2024/02/19 03:40:19;;;;;;;;;;;13.80;57.60;;;;;;5008895;28;20023;-79
2024/02/19 03:42:47;;;;;;;;;;;13.80;57.60;;;;;;5012252;28;19999;-81
2024/02/19 03:45:16;;;;;;;;;;;13.90;57.70;;;;;;5012918;28;20457;-79
2024/02/19 03:47:45;;;;;;;;;;;13.80;57.70;;;;;;5003572;28;21085;-80
2024/02/19 03:50:13;;;;;;;;;;;13.80;57.70;;;;;;5014469;28;19940;-81
2024/02/19 03:52:41;;;;;;;;;;;13.90;57.80;;;;;;5014010;28;19986;-81
2024/02/19 03:55:11;;;;;;;;;;;13.90;57.70;;;;;;5012985;28;20065;-80
2024/02/19 03:57:39;;;;;;;;;;;13.90;57.70;;;;;;5005906;28;20024;-81
2024/02/19 04:00:09;;;;;;;;;;;13.90;57.70;;;;;;5008525;28;19929;-79
2024/02/19 04:02:39;;;;;;;;;;;13.90;57.90;;;;;;5014193;28;20019;-81
2024/02/19 04:05:08;;;;;;;;;;;14.00;57.90;;;;;;5010145;28;19935;-81
2024/02/19 04:07:36;;;;;;;;;;;14.00;57.90;;;;;;5013753;28;20284;-79
2024/02/19 04:10:05;;;;;;;;;;;14.00;57.80;;;;;;5003450;28;19929;-77
2024/02/19 04:12:35;;;;;;;;;;;14.00;57.80;;;;;;5016676;28;19929;-78
2024/02/19 04:15:04;;;;;;;;;;;14.00;57.70;;;;;;5009751;28;19944;-79
2024/02/19 04:17:33;;;;;;;;;;;14.00;57.70;;;;;;5009761;28;20396;-79
2024/02/19 04:20:01;;;;;;;;;;;14.00;57.80;;;;;;5011999;28;19940;-78
2024/02/19 04:22:29;;;;;;;;;;;14.00;57.90;;;;;;5007099;28;19933;-78
2024/02/19 04:24:57;;;;;;;;;;;14.00;57.90;;;;;;5013532;28;19936;-78
2024/02/19 04:27:25;;;;;;;;;;;14.00;57.80;;;;;;5013332;28;20494;-78
2024/02/19 04:29:55;;;;;;;;;;;14.00;57.90;;;;;;5009782;28;19929;-77
2024/02/19 04:32:23;;;;;;;;;;;14.00;57.90;;;;;;5010491;28;21493;-79
2024/02/19 04:34:54;;;;;;;;;;;13.90;57.70;;;;;;5010988;28;19929;-77
2024/02/19 04:37:22;;;;;;;;;;;14.00;57.90;;;;;;5004556;28;19960;-78
2024/02/19 04:39:51;;;;;;;;;;;14.00;57.90;;;;;;5013069;28;19956;-77
2024/02/19 04:42:19;;;;;;;;;;;14.00;57.90;;;;;;5011511;28;19929;-79
2024/02/19 04:44:47;;;;;;;;;;;14.00;57.80;;;;;;5012905;28;19933;-79
2024/02/19 04:47:17;;;;;;;;;;;14.00;57.70;;;;;;5006582;28;19940;-77
2024/02/19 04:49:45;;;;;;;;;;;14.00;58.40;;;;;;5006315;28;19961;-77
2024/02/19 04:52:13;;;;;;;;;;;14.00;57.90;;;;;;5009231;28;19976;-79
2024/02/19 04:54:41;;;;;;;;;;;14.10;57.80;;;;;;5013412;28;19933;-76
2024/02/19 04:57:09;;;;;;;;;;;14.10;57.80;;;;;;5013682;28;19933;-77
2024/02/19 04:59:37;;;;;;;;;;;14.10;58.00;;;;;;5009392;28;19968;-77
2024/02/19 05:02:05;;;;;;;;;;;14.10;57.90;;;;;;5007894;28;19930;-77
2024/02/19 05:04:36;;;;;;;;;;;14.20;57.80;;;;;;5011445;28;20067;-78
2024/02/19 05:07:04;;;;;;;;;;;14.20;57.70;;;;;;5015519;28;20016;-77
2024/02/19 05:09:33;;;;;;;;;;;14.30;57.60;;;;;;5008519;28;20484;-76
2024/02/19 05:12:01;;;;;;;;;;;14.30;57.50;;;;;;5011116;28;19929;-77
2024/02/19 05:14:29;;;;;;;;;;;14.30;57.50;;;;;;5008970;28;19960;-76
2024/02/19 05:16:57;;;;;;;;;;;14.20;57.40;;;;;;5014004;28;20105;-77
2024/02/19 05:19:25;;;;;;;;;;;14.20;57.40;;;;;;5011056;28;19932;-77
2024/02/19 05:21:56;;;;;;;;;;;14.30;57.50;;;;;;5016423;28;20678;-76
2024/02/19 05:24:24;;;;;;;;;;;14.20;57.50;;;;;;5014777;28;19937;-77
2024/02/19 05:26:52;;;;;;;;;;;14.50;57.90;;;;;;5022603;28;20028;-76
2024/02/19 05:29:21;;;;;;;;;;;14.10;57.60;;;;;;5008196;28;19937;-77
2024/02/19 05:31:51;;;;;;;;;;;14.10;57.60;;;;;;5014275;28;19988;-76
2024/02/19 05:34:20;;;;;;;;;;;14.10;57.60;;;;;;5014434;28;19936;-78
2024/02/19 05:36:49;;;;;;;;;;;14.10;57.60;;;;;;5028942;28;20741;-78
2024/02/19 05:39:18;;;;;;;;;;;14.00;57.50;;;;;;5018116;28;20024;-77
2024/02/19 05:41:47;;;;;;;;;;;14.00;57.60;;;;;;5015927;28;20024;-77
2024/02/19 05:44:15;;;;;;;;;;;14.00;57.70;;;;;;5019012;28;19929;-78
2024/02/19 05:46:43;;;;;;;;;;;13.90;57.60;;;;;;5020212;28;20399;-78
2024/02/19 05:49:11;;;;;;;;;;;13.90;57.50;;;;;;5018326;28;19991;-77
2024/02/19 05:51:41;;;;;;;;;;;13.90;57.60;;;;;;5020058;28;20697;-78
2024/02/19 05:54:09;;;;;;;;;;;14.00;57.60;;;;;;5013228;28;19929;-78
2024/02/19 05:56:38;;;;;;;;;;;14.00;57.60;;;;;;5006469;28;19929;-78
2024/02/19 05:59:07;;;;;;;;;;;14.00;57.50;;;;;;5014332;28;19968;-77
2024/02/19 06:01:35;;;;;;;;;;;14.10;57.50;;;;;;5013070;28;19955;-77
2024/02/19 06:04:04;;;;;;;;;;;14.10;57.40;;;;;;5011983;28;19975;-75
2024/02/19 06:06:33;;;;;;;;;;;14.10;57.40;;;;;;5012741;28;19929;-75
2024/02/19 06:09:04;;;;;;;;;;;14.20;57.30;;;;;;5011086;28;19936;-79
2024/02/19 06:11:32;;;;;;;;;;;14.30;57.10;;;;;;5011819;28;19937;-76
2024/02/19 06:14:02;;;;;;;;;;;14.40;56.90;;;;;;5014073;28;19929;-75
2024/02/19 06:16:30;;;;;;;;;;;14.50;56.90;;;;;;5024032;28;20012;-76
2024/02/19 06:19:01;;;;;;;;;;;14.60;56.80;;;;;;5014708;28;19933;-77
2024/02/19 06:21:30;;;;;;;;;;;14.70;56.80;;;;;;5011780;28;19929;-78
2024/02/19 06:23:59;;;;;;;;;;;14.70;56.60;;;;;;5012248;28;20419;-74
2024/02/19 06:26:27;;;;;;;;;;;14.80;56.50;;;;;;5010808;28;19929;-76
2024/02/19 06:28:54;;;;;;;;;;;14.90;56.50;;;;;;5009903;28;19929;-79
2024/02/19 06:31:27;;;;;;;;;;;14.90;56.40;;;;;;5010423;28;19933;-79
2024/02/19 06:33:56;;;;;;;;;;;15.00;56.60;;;;;;4996394;28;20403;-46
2024/02/19 06:36:25;;;;;;;;;;;15.10;56.60;;;;;;5002783;28;19928;-67
2024/02/19 06:38:53;;;;;;;;;;;15.20;56.50;;;;;;5004787;28;19935;-68
2024/02/19 06:41:23;;;;;;;;;;;15.30;56.40;;;;;;5006839;28;20300;-64
2024/02/19 06:43:52;;;;;;;;;;;15.40;56.40;;;;;;4997481;28;19936;-64
2024/02/19 06:46:20;;;;;;;;;;;15.50;56.40;;;;;;5001811;28;20315;-67
2024/02/19 06:48:50;;;;;;;;;;;15.50;56.30;;;;;;5002351;28;20908;-69
2024/02/19 06:51:18;;;;;;;;;;;15.60;56.30;;;;;;5005532;28;20056;-67
2024/02/19 06:53:46;;;;;;;;;;;15.70;56.30;;;;;;5002439;28;19929;-67
2024/02/19 06:56:14;;;;;;;;;;;15.60;56.20;;;;;;4999560;28;19939;-64
2024/02/19 06:58:43;;;;;;;;;;;15.50;56.20;;;;;;5002670;28;19929;-70
2024/02/19 07:01:13;;;;;;;;;;;15.50;56.40;;;;;;5002400;28;19933;-68
2024/02/19 07:03:41;;;;;;;;;;;15.50;56.50;;;;;;5013408;28;19945;-69
2024/02/19 07:06:11;;;;;;;;;;;15.60;56.40;;;;;;5006919;28;19929;-71
2024/02/19 07:08:40;;;;;;;;;;;15.60;56.40;;;;;;5003610;28;19933;-68
2024/02/19 07:11:08;;;;;;;;;;;15.70;56.30;;;;;;5010423;28;19929;-67
2024/02/19 07:13:36;;;;;;;;;;;15.80;56.30;;;;;;5010856;28;19929;-68
2024/02/19 07:16:05;;;;;;;;;;;15.80;56.20;;;;;;5005636;28;21169;-68
2024/02/19 07:18:33;;;;;;;;;;;15.80;56.10;;;;;;5000858;28;20656;-68
2024/02/19 07:21:01;;;;;;;;;;;15.90;56.20;;;;;;5008325;28;20398;-69
2024/02/19 07:23:31;;;;;;;;;;;15.90;56.10;;;;;;5010429;28;19948;-67
2024/02/19 07:25:59;;;;;;;;;;;15.90;56.10;;;;;;5008894;28;19955;-70
2024/02/19 07:28:27;;;;;;;;;;;16.00;56.10;;;;;;5003188;28;19940;-68
2024/02/19 07:30:56;;;;;;;;;;;16.00;56.10;;;;;;5006335;28;19958;-74
2024/02/19 07:33:24;;;;;;;;;;;16.00;56.10;;;;;;5009121;28;20138;-70
2024/02/19 07:35:52;;;;;;;;;;;16.10;56.10;;;;;;5005727;28;19939;-76
2024/02/19 07:38:21;;;;;;;;;;;16.10;56.00;;;;;;5008420;28;19929;-67
2024/02/19 07:40:51;;;;;;;;;;;16.20;56.10;;;;;;5003035;28;19929;-75
2024/02/19 07:43:19;;;;;;;;;;;16.30;56.00;;;;;;5009732;28;19940;-70
2024/02/19 07:45:47;;;;;;;;;;;16.40;56.00;;;;;;5008056;28;19937;-70
2024/02/19 07:48:15;;;;;;;;;;;16.40;55.90;;;;;;5009766;28;19926;-71
2024/02/19 07:50:44;;;;;;;;;;;16.50;55.80;;;;;;5001167;28;20877;-70
2024/02/19 07:53:12;;;;;;;;;;;16.60;55.70;;;;;;5009340;28;19940;-71
2024/02/19 07:55:44;;;;;;;;;;;16.70;55.70;;;;;;5003766;28;19939;-67
2024/02/19 07:58:16;;;;;;;;;;;16.80;55.70;;;;;;5007532;28;20001;-69
2024/02/19 08:00:45;;;;;;;;;;;16.70;55.60;;;;;;4997469;28;21948;-69
2024/02/19 08:03:13;;;;;;;;;;;16.70;55.60;;;;;;5010059;28;20027;-72
2024/02/19 08:05:41;;;;;;;;;;;16.80;55.70;;;;;;5007052;28;19940;-72
2024/02/19 08:08:09;;;;;;;;;;;16.80;55.70;;;;;;5006593;28;20012;-73
2024/02/19 08:10:37;;;;;;;;;;;16.90;55.60;;;;;;5000671;28;20289;-74
2024/02/19 08:13:06;;;;;;;;;;;16.90;55.50;;;;;;5010501;28;20026;-76
2024/02/19 08:15:37;;;;;;;;;;;16.80;55.50;;;;;;5009864;28;19944;-74
2024/02/19 08:18:07;;;;;;;;;;;16.80;55.70;;;;;;5010316;28;19929;-72
2024/02/19 08:20:35;;;;;;;;;;;16.80;55.50;;;;;;5000627;28;19935;-72
2024/02/19 08:23:04;;;;;;;;;;;16.70;55.40;;;;;;5011902;28;19929;-72
2024/02/19 08:25:32;;;;;;;;;;;16.60;55.40;;;;;;5022689;28;19926;-71
2024/02/19 08:28:00;;;;;;;;;;;16.60;55.40;;;;;;5013210;28;20002;-73
2024/02/19 08:30:29;;;;;;;;;;;16.50;55.40;;;;;;4998911;28;20905;-68
2024/02/19 08:32:58;;;;;;;;;;;16.40;55.50;;;;;;5006840;28;19933;-70
2024/02/19 08:35:27;;;;;;;;;;;16.30;55.50;;;;;;5003490;28;19933;-69
2024/02/19 08:37:58;;;;;;;;;;;16.20;55.60;;;;;;5004449;28;19987;-72
2024/02/19 08:40:26;;;;;;;;;;;16.10;55.70;;;;;;5007014;28;20066;-70
2024/02/19 08:42:55;;;;;;;;;;;15.90;55.70;;;;;;5005036;28;19925;-72
2024/02/19 08:45:23;;;;;;;;;;;15.70;55.80;;;;;;5008343;28;19929;-72
2024/02/19 08:47:58;;;;;;;;;;;15.50;55.90;;;;;;5022122;28;20012;-75
2024/02/19 08:50:27;;;;;;;;;;;15.20;56.20;;;;;;4994086;28;19971;-75
2024/02/19 08:52:55;;;;;;;;;;;15.00;56.40;;;;;;5006601;28;19933;-67
2024/02/19 08:55:23;;;;;;;;;;;14.80;56.60;;;;;;5009082;28;19929;-72
2024/02/19 08:57:51;;;;;;;;;;;14.70;56.80;;;;;;5013482;28;19929;-67
2024/02/19 09:00:19;;;;;;;;;;;14.60;56.90;;;;;;5008871;28;19955;-69
2024/02/19 09:02:47;;;;;;;;;;;14.60;57.20;;;;;;5004954;28;20452;-69
2024/02/19 09:05:19;;;;;;;;;;;14.60;57.10;;;;;;5010628;28;19933;-69
2024/02/19 09:07:48;;;;;;;;;;;14.70;57.20;;;;;;5011025;28;19940;-69
2024/02/19 09:10:16;;;;;;;;;;;14.70;57.30;;;;;;5009925;28;20006;-64
2024/02/19 09:12:45;;;;;;;;;;;14.70;57.20;;;;;;5004035;28;20838;-66
2024/02/19 09:15:13;;;;;;;;;;;14.80;57.40;;;;;;5009841;28;20099;-73
2024/02/19 09:17:41;;;;;;;;;;;14.80;57.30;;;;;;5009512;28;20480;-70
2024/02/19 09:20:11;;;;;;;;;;;14.90;57.30;;;;;;5012361;28;19936;-71
2024/02/19 09:22:42;;;;;;;;;;;14.90;57.20;;;;;;5005199;28;19982;-70
2024/02/19 09:25:12;;;;;;;;;;;15.00;57.30;;;;;;5013393;28;19924;-70
2024/02/19 09:27:40;;;;;;;;;;;14.90;57.20;;;;;;5010468;28;20295;-68
2024/02/19 09:30:09;;;;;;;;;;;14.90;57.10;;;;;;5028300;28;19933;-73
2024/02/19 09:32:37;;;;;;;;;;;14.90;57.30;;;;;;5003385;28;19940;-68
2024/02/19 09:35:06;;;;;;;;;;;14.90;57.30;;;;;;5010757;28;19933;-68
2024/02/19 09:37:34;;;;;;;;;;;15.00;57.50;;;;;;5009499;28;19929;-70
2024/02/19 09:40:06;;;;;;;;;;;15.10;57.40;;;;;;5006933;28;19933;-76
2024/02/19 09:42:35;;;;;;;;;;;15.20;57.50;;;;;;5003724;28;20032;-71
2024/02/19 09:45:04;;;;;;;;;;;15.30;57.50;;;;;;5006425;28;19933;-71
2024/02/19 09:47:32;;;;;;;;;;;15.30;57.40;;;;;;5013051;28;19939;-71
2024/02/19 09:50:01;;;;;;;;;;;15.30;57.40;;;;;;5008936;28;19929;-70
2024/02/19 09:52:30;;;;;;;;;;;15.30;57.40;;;;;;5022817;28;19937;-68
2024/02/19 09:54:59;;;;;;;;;;;15.30;57.40;;;;;;5009053;28;19933;-69
2024/02/19 09:57:29;;;;;;;;;;;15.30;57.40;;;;;;5011653;28;19937;-70
2024/02/19 10:00:02;;;;;;;;;;;15.30;57.40;;;;;;5010385;28;20287;-70
2024/02/19 10:02:33;;;;;;;;;;;15.40;57.50;;;;;;5004563;28;19940;-68
2024/02/19 10:05:02;;;;;;;;;;;15.40;57.50;;;;;;5011247;28;19933;-64
2024/02/19 10:07:32;;;;;;;;;;;15.40;57.40;;;;;;5008863;28;19933;-68
2024/02/19 10:10:01;;;;;;;;;;;15.40;57.50;;;;;;5008763;28;19977;-64
2024/02/19 10:12:30;;;;;;;;;;;15.40;57.50;;;;;;5001518;28;19940;-66
2024/02/19 10:15:00;;;;;;;;;;;15.50;57.70;;;;;;5009366;28;19955;-66
2024/02/19 10:17:29;;;;;;;;;;;15.50;57.60;;;;;;5012528;28;20003;-64
2024/02/19 10:20:01;;;;;;;;;;;15.60;57.60;;;;;;5010085;28;19937;-68
2024/02/19 10:22:30;;;;;;;;;;;15.70;57.70;;;;;;5003258;28;19933;-72
2024/02/19 10:25:00;;;;;;;;;;;15.70;57.40;;;;;;5005972;28;19933;-64
2024/02/19 10:27:29;;;;;;;;;;;15.70;57.30;;;;;;5012934;28;19968;-66
2024/02/19 10:30:00;;;;;;;;;;;15.60;57.30;;;;;;5010197;28;19940;-63
2024/02/19 10:32:28;;;;;;;;;;;15.50;57.20;;;;;;5009329;28;19928;-63
2024/02/19 10:34:57;;;;;;;;;;;15.40;57.30;;;;;;5009155;28;19937;-65
2024/02/19 10:37:25;;;;;;;;;;;15.40;57.40;;;;;;5009924;28;19932;-66
2024/02/19 10:39:53;;;;;;;;;;;15.40;57.50;;;;;;5008326;28;19960;-67
2024/02/19 10:42:23;;;;;;;;;;;15.50;57.60;;;;;;5000027;28;19933;-68
2024/02/19 10:44:53;;;;;;;;;;;15.50;57.50;;;;;;5001823;28;21213;-71
2024/02/19 10:47:23;;;;;;;;;;;15.60;57.40;;;;;;5010121;28;19937;-71
2024/02/19 10:49:56;;;;;;;;;;;15.50;57.30;;;;;;5010320;28;19933;-68
2024/02/19 10:52:27;;;;;;;;;;;15.40;57.20;;;;;;5011241;28;19953;-68
2024/02/19 10:54:56;;;;;;;;;;;15.40;57.30;;;;;;5000802;28;20590;-68
2024/02/19 10:57:47;;;;;;;;;;;15.40;57.40;;;;;;5008625;28;19929;-70
2024/02/19 11:00:16;;;;;;;;;;;15.30;57.40;;;;;;5004903;28;20021;-67
2024/02/19 11:02:47;;;;;;;;;;;15.30;57.50;;;;;;5003556;28;19935;-67
2024/02/19 11:05:15;;;;;;;;;;;15.30;57.50;;;;;;5009542;28;20020;-70
2024/02/19 11:07:43;;;;;;;;;;;15.30;57.40;;;;;;5015892;28;19978;-66
2024/02/19 11:10:11;;;;;;;;;;;15.40;57.60;;;;;;5008180;28;20264;-74
2024/02/19 11:12:41;;;;;;;;;;;15.40;57.50;;;;;;5005225;28;19975;-68
2024/02/19 11:15:15;;;;;;;;;;;15.50;57.60;;;;;;5006296;28;20443;-68
2024/02/19 11:17:44;;;;;;;;;;;15.60;57.50;;;;;;5004333;28;19933;-67
2024/02/19 11:20:24;;;;;;;;;;;15.70;57.60;;;;;;5000507;28;19936;-72
2024/02/19 11:22:56;;;;;;;;;;;15.80;57.50;;;;;;5005233;28;19933;-67
2024/02/19 11:25:24;;;;;;;;;;;16.00;57.50;;;;;;5009963;28;19929;-68
2024/02/19 11:27:52;;;;;;;;;;;16.20;57.50;;;;;;5022428;28;19933;-69
2024/02/19 11:30:21;;;;;;;;;;;16.30;57.30;;;;;;5008293;28;19951;-68
2024/02/19 11:32:59;;;;;;;;;;;16.50;57.30;;;;;;5021404;28;19933;-67
2024/02/19 11:35:28;;;;;;;;;;;16.50;57.10;;;;;;4997900;28;20026;-70
2024/02/19 11:38:01;;;;;;;;;;;16.70;57.20;;;;;;4988033;28;20018;-70
2024/02/19 11:40:32;;;;;;;;;;;16.90;57.40;;;;;;5009030;28;19929;-72
2024/02/19 11:43:02;;;;;;;;;;;17.00;56.90;;;;;;5002980;28;21653;-67
2024/02/19 11:45:31;;;;;;;;;;;17.00;56.90;;;;;;4998953;28;19933;-65
2024/02/19 11:48:00;;;;;;;;;;;17.00;56.60;;;;;;5021357;28;19933;-65
2024/02/19 11:50:30;;;;;;;;;;;17.00;56.70;;;;;;5020605;28;20689;-65
2024/02/19 11:52:59;;;;;;;;;;;16.90;56.60;;;;;;5007276;28;20040;-65
2024/02/19 11:55:29;;;;;;;;;;;17.00;56.90;;;;;;5004285;28;19941;-66
2024/02/19 11:58:00;;;;;;;;;;;17.00;56.60;;;;;;5006836;28;19933;-67
2024/02/19 12:00:30;;;;;;;;;;;17.00;56.60;;;;;;5006659;28;19929;-65
2024/02/19 12:03:00;;;;;;;;;;;17.20;56.70;;;;;;5018789;28;19933;-66
2024/02/19 12:05:30;;;;;;;;;;;17.40;56.50;;;;;;5000393;28;19929;-64
2024/02/19 12:07:58;;;;;;;;;;;17.70;56.30;;;;;;5002956;28;19933;-66
2024/02/19 12:10:26;;;;;;;;;;;18.00;56.10;;;;;;5005872;28;19948;-65
2024/02/19 12:12:55;;;;;;;;;;;18.20;55.70;;;;;;5011610;28;19929;-66
2024/02/19 12:15:25;;;;;;;;;;;18.50;55.50;;;;;;5003732;28;19932;-66
2024/02/19 12:17:53;;;;;;;;;;;18.70;55.40;;;;;;5020335;28;19940;-66
2024/02/19 12:20:21;;;;;;;;;;;18.70;55.10;;;;;;5001568;28;19933;-66
2024/02/19 12:22:51;;;;;;;;;;;18.80;55.00;;;;;;5004749;28;19933;-70
2024/02/19 12:25:19;;;;;;;;;;;19.00;55.10;;;;;;5023637;28;20010;-67
2024/02/19 12:27:48;;;;;;;;;;;19.20;55.10;;;;;;5013611;28;19932;-65
2024/02/19 12:30:16;;;;;;;;;;;19.40;55.00;;;;;;5022319;28;19937;-73
2024/02/19 12:32:45;;;;;;;;;;;19.50;54.60;;;;;;5003294;28;19925;-77
2024/02/19 12:35:15;;;;;;;;;;;19.50;54.30;;;;;;4998158;28;19933;-68
2024/02/19 12:37:44;;;;;;;;;;;19.40;54.40;;;;;;5009087;28;19997;-71
2024/02/19 12:40:16;;;;;;;;;;;19.40;54.80;;;;;;4998781;28;20236;-70
2024/02/19 12:42:44;;;;;;;;;;;19.30;54.50;;;;;;5010118;28;19944;-71
2024/02/19 12:45:13;;;;;;;;;;;19.30;54.40;;;;;;5012016;28;19979;-70
2024/02/19 12:47:42;;;;;;;;;;;19.40;54.70;;;;;;5026199;28;19937;-69
2024/02/19 12:50:12;;;;;;;;;;;19.50;54.60;;;;;;5008056;28;20464;-69
2024/02/19 12:52:40;;;;;;;;;;;19.50;54.40;;;;;;5009043;28;19929;-73
2024/02/19 12:55:09;;;;;;;;;;;19.40;54.20;;;;;;5006998;28;19933;-72
2024/02/19 12:57:39;;;;;;;;;;;19.30;54.20;;;;;;5009247;28;19929;-74
2024/02/19 13:00:09;;;;;;;;;;;19.10;54.10;;;;;;5023583;28;19929;-72
2024/02/19 13:02:37;;;;;;;;;;;18.90;54.20;;;;;;5000432;28;20214;-72
2024/02/19 13:05:08;;;;;;;;;;;18.80;54.40;;;;;;5011663;28;19989;-75
2024/02/19 13:07:37;;;;;;;;;;;18.70;54.60;;;;;;5007709;28;19975;-68
2024/02/19 13:10:06;;;;;;;;;;;18.60;54.60;;;;;;5005638;28;19929;-66
2024/02/19 13:12:35;;;;;;;;;;;18.50;54.60;;;;;;4998425;28;19933;-68
2024/02/19 13:15:05;;;;;;;;;;;18.50;54.80;;;;;;5006766;28;19953;-66
2024/02/19 13:17:33;;;;;;;;;;;18.60;55.10;;;;;;5007107;28;19940;-77
2024/02/19 13:20:12;;;;;;;;;;;18.70;55.00;;;;;;5005459;28;19936;-69
2024/02/19 13:22:43;;;;;;;;;;;18.90;54.80;;;;;;5005853;28;19936;-67
2024/02/19 13:25:11;;;;;;;;;;;18.90;55.20;;;;;;5006184;28;19929;-67
2024/02/19 13:27:40;;;;;;;;;;;18.80;54.60;;;;;;5009256;28;20026;-72
2024/02/19 13:30:10;;;;;;;;;;;18.80;54.50;;;;;;5006706;28;19972;-71
2024/02/19 13:32:39;;;;;;;;;;;18.60;54.40;;;;;;5018898;28;19940;-72
2024/02/19 13:35:10;;;;;;;;;;;18.50;54.40;;;;;;5002992;28;19929;-72
2024/02/19 13:37:39;;;;;;;;;;;18.30;54.50;;;;;;5007196;28;20287;-69
2024/02/19 13:40:10;;;;;;;;;;;18.20;54.60;;;;;;5007253;28;19982;-72
2024/02/19 13:42:39;;;;;;;;;;;18.20;54.70;;;;;;5008701;28;19940;-67
2024/02/19 13:45:09;;;;;;;;;;;18.20;54.80;;;;;;5008172;28;19928;-66
2024/02/19 13:47:40;;;;;;;;;;;18.20;54.80;;;;;;5011197;28;19933;-71
2024/02/19 13:50:10;;;;;;;;;;;18.30;54.90;;;;;;5025935;28;19933;-69
2024/02/19 13:52:39;;;;;;;;;;;18.50;55.00;;;;;;5011065;28;20595;-66
2024/02/19 13:55:08;;;;;;;;;;;18.80;55.00;;;;;;5007630;28;19933;-66
2024/02/19 13:57:36;;;;;;;;;;;19.00;54.80;;;;;;5004069;28;19936;-67
2024/02/19 14:00:05;;;;;;;;;;;19.10;54.60;;;;;;5007509;28;19929;-66
2024/02/19 14:02:33;;;;;;;;;;;19.10;54.20;;;;;;5027388;28;19933;-68
2024/02/19 14:05:03;;;;;;;;;;;19.10;54.30;;;;;;5009059;28;19956;-69
2024/02/19 14:07:31;;;;;;;;;;;19.10;54.10;;;;;;5010020;28;20574;-68
2024/02/19 14:10:01;;;;;;;;;;;19.00;54.10;;;;;;5005290;28;20002;-65
2024/02/19 14:12:29;;;;;;;;;;;19.00;54.10;;;;;;5009332;28;19956;-67
2024/02/19 14:14:58;;;;;;;;;;;19.00;54.10;;;;;;5012198;28;20002;-68
2024/02/19 14:17:27;;;;;;;;;;;18.90;54.00;;;;;;5011102;28;19929;-70
2024/02/19 14:19:55;;;;;;;;;;;18.90;54.20;;;;;;5010297;28;20054;-68
2024/02/19 14:22:25;;;;;;;;;;;18.90;54.30;;;;;;5002782;28;19933;-68
2024/02/19 14:24:54;;;;;;;;;;;19.00;54.30;;;;;;5026807;28;20295;-67
2024/02/19 14:27:22;;;;;;;;;;;19.00;54.20;;;;;;5008995;28;20032;-67